sensor_id;sensor_type;location;lat;lon;timestamp;pressure;altitude;pressure_sealevel;temperature;humidity
63708;BME280;67643;-34.198;22.084;2023-08-07T00:00:32;101212.33;;;16.95;41.62
63708;BME280;67643;-34.198;22.084;2023-08-07T00:03:01;101210.32;;;17.33;41.45
63708;BME280;67643;-34.198;22.084;2023-08-07T00:05:30;101211.90;;;16.92;41.64
63708;BME280;67643;-34.198;22.084;2023-08-07T00:07:58;101208.74;;;16.66;41.82
63708;BME280;67643;-34.198;22.084;2023-08-07T00:10:27;101206.81;;;16.81;42.00
63708;BME280;67643;-34.198;22.084;2023-08-07T00:12:56;101206.64;;;17.07;42.03
63708;BME280;67643;-34.198;22.084;2023-08-07T00:15:25;101205.95;;;16.71;41.89
63708;BME280;67643;-34.198;22.084;2023-08-07T00:17:53;101203.40;;;16.74;41.77
63708;BME280;67643;-34.198;22.084;2023-08-07T00:20:23;101201.96;;;16.97;41.75
63708;BME280;67643;-34.198;22.084;2023-08-07T00:22:52;101200.48;;;17.08;41.60
63708;BME280;67643;-34.198;22.084;2023-08-07T00:25:20;101196.00;;;17.24;41.59
63708;BME280;67643;-34.198;22.084;2023-08-07T00:27:49;101186.80;;;16.96;41.68
63708;BME280;67643;-34.198;22.084;2023-08-07T00:30:18;101184.61;;;16.91;41.73
63708;BME280;67643;-34.198;22.084;2023-08-07T00:32:47;101177.64;;;16.96;41.68
63708;BME280;67643;-34.198;22.084;2023-08-07T00:35:16;101177.66;;;16.86;41.45
63708;BME280;67643;-34.198;22.084;2023-08-07T00:37:45;101174.04;;;16.97;41.67
63708;BME280;67643;-34.198;22.084;2023-08-07T00:40:14;101170.78;;;16.90;41.83
63708;BME280;67643;-34.198;22.084;2023-08-07T00:42:43;101167.83;;;16.94;41.77
63708;BME280;67643;-34.198;22.084;2023-08-07T00:45:12;101167.63;;;16.87;41.93
63708;BME280;67643;-34.198;22.084;2023-08-07T00:47:40;101162.12;;;16.74;41.81
63708;BME280;67643;-34.198;22.084;2023-08-07T00:50:10;101157.73;;;16.78;41.62
63708;BME280;67643;-34.198;22.084;2023-08-07T00:52:39;101156.95;;;16.97;41.70
63708;BME280;67643;-34.198;22.084;2023-08-07T00:55:08;101152.26;;;16.76;41.65
63708;BME280;67643;-34.198;22.084;2023-08-07T00:57:38;101153.48;;;16.75;41.72
63708;BME280;67643;-34.198;22.084;2023-08-07T01:00:07;101153.42;;;16.71;41.87
63708;BME280;67643;-34.198;22.084;2023-08-07T01:02:36;101149.78;;;16.77;41.82
63708;BME280;67643;-34.198;22.084;2023-08-07T01:05:05;101148.01;;;17.27;41.85
63708;BME280;67643;-34.198;22.084;2023-08-07T01:07:34;101146.28;;;17.06;41.79
63708;BME280;67643;-34.198;22.084;2023-08-07T01:10:02;101144.55;;;17.34;41.84
63708;BME280;67643;-34.198;22.084;2023-08-07T01:12:36;101143.49;;;16.93;42.02
63708;BME280;67643;-34.198;22.084;2023-08-07T01:15:10;101147.08;;;16.99;41.92
63708;BME280;67643;-34.198;22.084;2023-08-07T01:17:43;101149.61;;;17.07;41.82
63708;BME280;67643;-34.198;22.084;2023-08-07T01:20:12;101149.64;;;17.03;41.87
63708;BME280;67643;-34.198;22.084;2023-08-07T01:22:42;101145.24;;;16.87;41.79
63708;BME280;67643;-34.198;22.084;2023-08-07T01:25:11;101143.49;;;16.80;41.90
63708;BME280;67643;-34.198;22.084;2023-08-07T01:27:44;101144.28;;;16.80;41.87
63708;BME280;67643;-34.198;22.084;2023-08-07T01:30:20;101141.24;;;16.99;41.79
63708;BME280;67643;-34.198;22.084;2023-08-07T01:32:57;101140.24;;;16.89;41.59
63708;BME280;67643;-34.198;22.084;2023-08-07T01:35:32;101133.44;;;16.74;41.72
63708;BME280;67643;-34.198;22.084;2023-08-07T01:38:02;101135.09;;;16.68;41.86
63708;BME280;67643;-34.198;22.084;2023-08-07T01:40:30;101136.57;;;16.93;41.88
63708;BME280;67643;-34.198;22.084;2023-08-07T01:42:59;101139.71;;;16.83;41.64
63708;BME280;67643;-34.198;22.084;2023-08-07T01:45:29;101135.96;;;17.01;41.68
63708;BME280;67643;-34.198;22.084;2023-08-07T01:47:58;101131.94;;;16.71;41.78
63708;BME280;67643;-34.198;22.084;2023-08-07T01:50:27;101129.91;;;16.73;41.71
63708;BME280;67643;-34.198;22.084;2023-08-07T01:52:56;101127.68;;;16.60;42.02
63708;BME280;67643;-34.198;22.084;2023-08-07T01:55:25;101124.12;;;16.79;42.00
63708;BME280;67643;-34.198;22.084;2023-08-07T01:57:53;101124.82;;;17.09;41.90
63708;BME280;67643;-34.198;22.084;2023-08-07T02:03:00;101124.25;;;17.30;42.24
63708;BME280;67643;-34.198;22.084;2023-08-07T02:05:29;101124.29;;;16.83;41.90
63708;BME280;67643;-34.198;22.084;2023-08-07T02:07:57;101120.28;;;16.83;41.85
63708;BME280;67643;-34.198;22.084;2023-08-07T02:10:26;101120.29;;;16.71;42.11
63708;BME280;67643;-34.198;22.084;2023-08-07T02:12:57;101123.10;;;16.72;42.09
63708;BME280;67643;-34.198;22.084;2023-08-07T02:15:25;101125.38;;;17.02;42.06
63708;BME280;67643;-34.198;22.084;2023-08-07T02:17:53;101128.78;;;16.64;42.24
63708;BME280;67643;-34.198;22.084;2023-08-07T02:20:22;101127.96;;;16.68;42.19
63708;BME280;67643;-34.198;22.084;2023-08-07T02:22:51;101129.35;;;16.38;42.35
63708;BME280;67643;-34.198;22.084;2023-08-07T02:25:20;101129.81;;;16.55;42.35
63708;BME280;67643;-34.198;22.084;2023-08-07T02:27:48;101129.76;;;16.36;42.32
63708;BME280;67643;-34.198;22.084;2023-08-07T02:30:17;101131.82;;;16.59;42.19
63708;BME280;67643;-34.198;22.084;2023-08-07T02:32:46;101134.26;;;16.81;42.31
63708;BME280;67643;-34.198;22.084;2023-08-07T02:35:15;101132.29;;;16.70;42.58
63708;BME280;67643;-34.198;22.084;2023-08-07T02:37:43;101127.99;;;16.45;42.40
63708;BME280;67643;-34.198;22.084;2023-08-07T02:40:12;101123.93;;;16.77;42.30
63708;BME280;67643;-34.198;22.084;2023-08-07T02:42:41;101124.84;;;16.87;42.17
63708;BME280;67643;-34.198;22.084;2023-08-07T02:45:10;101125.27;;;16.66;42.07
63708;BME280;67643;-34.198;22.084;2023-08-07T02:47:38;101127.73;;;16.40;42.06
63708;BME280;67643;-34.198;22.084;2023-08-07T02:50:07;101129.15;;;16.74;42.32
63708;BME280;67643;-34.198;22.084;2023-08-07T02:52:36;101124.62;;;16.25;42.29
63708;BME280;67643;-34.198;22.084;2023-08-07T02:55:05;101131.55;;;16.38;42.35
63708;BME280;67643;-34.198;22.084;2023-08-07T02:57:34;101136.12;;;16.69;42.38
63708;BME280;67643;-34.198;22.084;2023-08-07T03:00:03;101135.11;;;16.31;42.55
63708;BME280;67643;-34.198;22.084;2023-08-07T03:02:32;101133.19;;;16.68;42.38
63708;BME280;67643;-34.198;22.084;2023-08-07T03:05:00;101127.96;;;16.39;42.41
63708;BME280;67643;-34.198;22.084;2023-08-07T03:07:29;101126.07;;;16.48;42.73
63708;BME280;67643;-34.198;22.084;2023-08-07T03:09:57;101126.59;;;16.51;42.63
63708;BME280;67643;-34.198;22.084;2023-08-07T03:12:26;101128.19;;;16.31;42.70
63708;BME280;67643;-34.198;22.084;2023-08-07T03:14:55;101128.23;;;16.56;42.78
63708;BME280;67643;-34.198;22.084;2023-08-07T03:17:23;101128.85;;;16.51;42.84
63708;BME280;67643;-34.198;22.084;2023-08-07T03:19:51;101125.70;;;16.51;42.86
63708;BME280;67643;-34.198;22.084;2023-08-07T03:22:20;101127.41;;;16.59;42.75
63708;BME280;67643;-34.198;22.084;2023-08-07T03:24:49;101129.74;;;16.53;42.76
63708;BME280;67643;-34.198;22.084;2023-08-07T03:27:18;101131.48;;;16.56;42.62
63708;BME280;67643;-34.198;22.084;2023-08-07T03:29:47;101132.18;;;16.63;42.56
63708;BME280;67643;-34.198;22.084;2023-08-07T03:32:17;101134.24;;;16.21;42.76
63708;BME280;67643;-34.198;22.084;2023-08-07T03:34:46;101133.08;;;16.44;42.79
63708;BME280;67643;-34.198;22.084;2023-08-07T03:37:14;101134.37;;;16.46;42.76
63708;BME280;67643;-34.198;22.084;2023-08-07T03:39:43;101128.58;;;16.11;42.81
63708;BME280;67643;-34.198;22.084;2023-08-07T03:42:11;101125.54;;;16.27;42.93
63708;BME280;67643;-34.198;22.084;2023-08-07T03:44:40;101125.07;;;16.33;42.81
63708;BME280;67643;-34.198;22.084;2023-08-07T03:47:09;101126.55;;;16.18;43.09
63708;BME280;67643;-34.198;22.084;2023-08-07T03:49:38;101122.93;;;16.35;42.84
63708;BME280;67643;-34.198;22.084;2023-08-07T03:52:07;101120.86;;;15.92;43.02
63708;BME280;67643;-34.198;22.084;2023-08-07T03:54:36;101119.18;;;16.19;42.99
63708;BME280;67643;-34.198;22.084;2023-08-07T03:57:05;101121.90;;;16.14;43.06
63708;BME280;67643;-34.198;22.084;2023-08-07T03:59:34;101125.75;;;16.11;43.14
63708;BME280;67643;-34.198;22.084;2023-08-07T04:02:03;101126.82;;;15.87;43.10
63708;BME280;67643;-34.198;22.084;2023-08-07T04:04:32;101122.96;;;16.10;43.17
63708;BME280;67643;-34.198;22.084;2023-08-07T04:07:00;101123.57;;;16.38;43.06
63708;BME280;67643;-34.198;22.084;2023-08-07T04:09:29;101120.80;;;16.07;43.23
63708;BME280;67643;-34.198;22.084;2023-08-07T04:11:58;101119.27;;;16.16;43.07
63708;BME280;67643;-34.198;22.084;2023-08-07T04:14:26;101119.09;;;16.09;43.24
63708;BME280;67643;-34.198;22.084;2023-08-07T04:16:54;101117.64;;;16.03;43.38
63708;BME280;67643;-34.198;22.084;2023-08-07T04:19:23;101111.48;;;16.00;43.39
63708;BME280;67643;-34.198;22.084;2023-08-07T04:21:51;101111.02;;;16.10;43.21
63708;BME280;67643;-34.198;22.084;2023-08-07T04:24:20;101109.00;;;15.97;43.42
63708;BME280;67643;-34.198;22.084;2023-08-07T04:26:50;101111.81;;;15.97;43.45
63708;BME280;67643;-34.198;22.084;2023-08-07T04:29:18;101106.90;;;16.06;43.31
63708;BME280;67643;-34.198;22.084;2023-08-07T04:31:47;101102.91;;;16.14;43.09
63708;BME280;67643;-34.198;22.084;2023-08-07T04:34:15;101103.97;;;16.10;43.12
63708;BME280;67643;-34.198;22.084;2023-08-07T04:36:44;101101.40;;;15.96;43.41
63708;BME280;67643;-34.198;22.084;2023-08-07T04:39:12;101098.29;;;15.93;43.47
63708;BME280;67643;-34.198;22.084;2023-08-07T04:41:41;101098.97;;;15.96;43.50
63708;BME280;67643;-34.198;22.084;2023-08-07T04:44:09;101102.32;;;15.92;43.62
63708;BME280;67643;-34.198;22.084;2023-08-07T04:46:38;101105.34;;;16.11;43.43
63708;BME280;67643;-34.198;22.084;2023-08-07T04:49:07;101103.63;;;15.91;43.77
63708;BME280;67643;-34.198;22.084;2023-08-07T04:51:35;101102.33;;;16.03;43.57
63708;BME280;67643;-34.198;22.084;2023-08-07T04:54:04;101105.30;;;16.08;43.56
63708;BME280;67643;-34.198;22.084;2023-08-07T04:56:32;101106.84;;;15.97;43.66
63708;BME280;67643;-34.198;22.084;2023-08-07T04:59:01;101112.46;;;16.29;43.61
63708;BME280;67643;-34.198;22.084;2023-08-07T05:01:30;101116.20;;;15.85;44.14
63708;BME280;67643;-34.198;22.084;2023-08-07T05:03:59;101119.80;;;16.11;44.42
63708;BME280;67643;-34.198;22.084;2023-08-07T05:06:27;101125.38;;;15.90;44.20
63708;BME280;67643;-34.198;22.084;2023-08-07T05:08:55;101131.64;;;15.84;44.72
63708;BME280;67643;-34.198;22.084;2023-08-07T05:11:24;101130.75;;;15.99;44.53
63708;BME280;67643;-34.198;22.084;2023-08-07T05:13:52;101138.33;;;15.84;44.68
63708;BME280;67643;-34.198;22.084;2023-08-07T05:16:21;101144.96;;;15.65;45.10
63708;BME280;67643;-34.198;22.084;2023-08-07T05:18:49;101145.55;;;15.78;44.95
63708;BME280;67643;-34.198;22.084;2023-08-07T05:21:18;101147.22;;;16.17;45.20
63708;BME280;67643;-34.198;22.084;2023-08-07T05:23:47;101142.14;;;15.88;44.82
63708;BME280;67643;-34.198;22.084;2023-08-07T05:26:17;101146.56;;;15.89;44.85
63708;BME280;67643;-34.198;22.084;2023-08-07T05:28:47;101146.75;;;15.95;44.63
63708;BME280;67643;-34.198;22.084;2023-08-07T05:31:15;101151.09;;;15.84;44.84
63708;BME280;67643;-34.198;22.084;2023-08-07T05:33:44;101147.07;;;15.69;45.11
63708;BME280;67643;-34.198;22.084;2023-08-07T05:36:13;101147.55;;;15.65;45.34
63708;BME280;67643;-34.198;22.084;2023-08-07T05:38:42;101146.88;;;15.68;44.87
63708;BME280;67643;-34.198;22.084;2023-08-07T05:41:10;101151.67;;;15.77;45.38
63708;BME280;67643;-34.198;22.084;2023-08-07T05:43:39;101151.53;;;15.69;44.97
63708;BME280;67643;-34.198;22.084;2023-08-07T05:46:08;101156.08;;;15.90;44.74
63708;BME280;67643;-34.198;22.084;2023-08-07T05:48:37;101158.57;;;15.65;44.98
63708;BME280;67643;-34.198;22.084;2023-08-07T05:51:05;101157.03;;;15.64;44.78
63708;BME280;67643;-34.198;22.084;2023-08-07T05:53:35;101153.91;;;15.58;44.43
63708;BME280;67643;-34.198;22.084;2023-08-07T05:56:04;101156.24;;;15.76;44.52
63708;BME280;67643;-34.198;22.084;2023-08-07T05:58:32;101155.55;;;15.77;44.57
63708;BME280;67643;-34.198;22.084;2023-08-07T06:01:01;101158.60;;;15.66;44.82
63708;BME280;67643;-34.198;22.084;2023-08-07T06:03:30;101159.27;;;15.56;44.49
63708;BME280;67643;-34.198;22.084;2023-08-07T06:05:58;101158.98;;;16.07;44.08
63708;BME280;67643;-34.198;22.084;2023-08-07T06:08:26;101154.85;;;15.92;44.25
63708;BME280;67643;-34.198;22.084;2023-08-07T06:10:54;101156.57;;;15.81;44.71
63708;BME280;67643;-34.198;22.084;2023-08-07T06:13:23;101154.71;;;15.65;44.41
63708;BME280;67643;-34.198;22.084;2023-08-07T06:15:51;101153.04;;;15.75;44.37
63708;BME280;67643;-34.198;22.084;2023-08-07T06:18:20;101150.09;;;15.83;44.26
63708;BME280;67643;-34.198;22.084;2023-08-07T06:20:49;101147.62;;;15.79;44.42
63708;BME280;67643;-34.198;22.084;2023-08-07T06:23:17;101145.60;;;15.81;44.49
63708;BME280;67643;-34.198;22.084;2023-08-07T06:25:46;101141.95;;;15.87;44.89
63708;BME280;67643;-34.198;22.084;2023-08-07T06:28:15;101142.68;;;15.99;44.78
63708;BME280;67643;-34.198;22.084;2023-08-07T06:30:45;101145.14;;;15.90;44.67
63708;BME280;67643;-34.198;22.084;2023-08-07T06:33:14;101141.68;;;16.27;44.62
63708;BME280;67643;-34.198;22.084;2023-08-07T06:35:43;101138.89;;;16.00;44.58
63708;BME280;67643;-34.198;22.084;2023-08-07T06:38:11;101139.44;;;16.12;44.96
63708;BME280;67643;-34.198;22.084;2023-08-07T06:40:39;101136.47;;;16.11;44.71
63708;BME280;67643;-34.198;22.084;2023-08-07T06:43:09;101136.15;;;16.00;44.59
63708;BME280;67643;-34.198;22.084;2023-08-07T06:45:37;101134.54;;;16.52;44.52
63708;BME280;67643;-34.198;22.084;2023-08-07T06:48:05;101136.38;;;16.48;44.69
63708;BME280;67643;-34.198;22.084;2023-08-07T06:50:34;101138.21;;;16.16;44.58
63708;BME280;67643;-34.198;22.084;2023-08-07T06:53:03;101140.33;;;16.20;44.75
63708;BME280;67643;-34.198;22.084;2023-08-07T06:55:31;101138.76;;;16.05;44.52
63708;BME280;67643;-34.198;22.084;2023-08-07T06:58:00;101139.44;;;16.34;44.23
63708;BME280;67643;-34.198;22.084;2023-08-07T07:00:28;101138.95;;;16.43;44.30
63708;BME280;67643;-34.198;22.084;2023-08-07T07:02:57;101138.71;;;16.29;44.27
63708;BME280;67643;-34.198;22.084;2023-08-07T07:05:26;101135.64;;;16.36;44.23
63708;BME280;67643;-34.198;22.084;2023-08-07T07:07:54;101132.64;;;16.88;43.84
63708;BME280;67643;-34.198;22.084;2023-08-07T07:10:23;101133.53;;;16.63;43.91
63708;BME280;67643;-34.198;22.084;2023-08-07T07:12:52;101136.71;;;16.86;43.69
63708;BME280;67643;-34.198;22.084;2023-08-07T07:15:21;101137.03;;;16.65;44.03
63708;BME280;67643;-34.198;22.084;2023-08-07T07:17:49;101134.37;;;16.99;43.57
63708;BME280;67643;-34.198;22.084;2023-08-07T07:20:18;101134.62;;;17.01;43.62
63708;BME280;67643;-34.198;22.084;2023-08-07T07:22:46;101134.84;;;16.51;43.78
63708;BME280;67643;-34.198;22.084;2023-08-07T07:25:15;101132.06;;;17.22;43.38
63708;BME280;67643;-34.198;22.084;2023-08-07T07:27:44;101133.30;;;17.13;43.66
63708;BME280;67643;-34.198;22.084;2023-08-07T07:30:13;101132.93;;;16.98;44.12
63708;BME280;67643;-34.198;22.084;2023-08-07T07:32:42;101129.50;;;17.27;44.08
63708;BME280;67643;-34.198;22.084;2023-08-07T07:35:11;101130.34;;;17.39;44.06
63708;BME280;67643;-34.198;22.084;2023-08-07T07:37:45;101129.70;;;17.45;43.82
63708;BME280;67643;-34.198;22.084;2023-08-07T07:40:14;101128.95;;;17.34;43.85
63708;BME280;67643;-34.198;22.084;2023-08-07T07:42:43;101124.82;;;17.65;44.13
63708;BME280;67643;-34.198;22.084;2023-08-07T07:45:11;101120.81;;;17.52;44.10
63708;BME280;67643;-34.198;22.084;2023-08-07T07:47:40;101121.46;;;17.52;44.03
63708;BME280;67643;-34.198;22.084;2023-08-07T07:50:10;101119.89;;;17.44;44.30
63708;BME280;67643;-34.198;22.084;2023-08-07T07:52:39;101123.16;;;17.60;44.16
63708;BME280;67643;-34.198;22.084;2023-08-07T07:55:08;101123.60;;;17.65;44.22
63708;BME280;67643;-34.198;22.084;2023-08-07T07:57:36;101119.86;;;18.00;43.95
63708;BME280;67643;-34.198;22.084;2023-08-07T08:00:06;101118.34;;;17.96;43.50
63708;BME280;67643;-34.198;22.084;2023-08-07T08:02:35;101124.13;;;17.97;44.06
63708;BME280;67643;-34.198;22.084;2023-08-07T08:05:04;101128.47;;;17.73;43.75
63708;BME280;67643;-34.198;22.084;2023-08-07T08:07:33;101124.96;;;17.71;43.67
63708;BME280;67643;-34.198;22.084;2023-08-07T08:10:01;101123.50;;;17.93;43.87
63708;BME280;67643;-34.198;22.084;2023-08-07T08:12:31;101122.46;;;17.97;44.05
63708;BME280;67643;-34.198;22.084;2023-08-07T08:15:00;101121.32;;;17.72;44.19
63708;BME280;67643;-34.198;22.084;2023-08-07T08:17:29;101126.45;;;17.43;44.17
63708;BME280;67643;-34.198;22.084;2023-08-07T08:19:57;101131.93;;;17.86;43.90
63708;BME280;67643;-34.198;22.084;2023-08-07T08:22:26;101133.13;;;17.71;43.75
63708;BME280;67643;-34.198;22.084;2023-08-07T08:24:56;101138.01;;;17.68;44.07
63708;BME280;67643;-34.198;22.084;2023-08-07T08:27:25;101137.25;;;17.70;44.39
63708;BME280;67643;-34.198;22.084;2023-08-07T08:29:53;101139.83;;;18.10;44.00
63708;BME280;67643;-34.198;22.084;2023-08-07T08:32:22;101143.50;;;17.75;43.79
63708;BME280;67643;-34.198;22.084;2023-08-07T08:34:51;101143.41;;;18.06;44.17
63708;BME280;67643;-34.198;22.084;2023-08-07T08:37:20;101138.93;;;17.60;43.89
63708;BME280;67643;-34.198;22.084;2023-08-07T08:39:48;101137.15;;;17.52;43.61
63708;BME280;67643;-34.198;22.084;2023-08-07T08:42:17;101134.27;;;17.97;43.77
63708;BME280;67643;-34.198;22.084;2023-08-07T08:44:49;101129.25;;;17.53;43.87
63708;BME280;67643;-34.198;22.084;2023-08-07T08:47:19;101123.65;;;17.53;44.09
63708;BME280;67643;-34.198;22.084;2023-08-07T08:49:51;101117.98;;;17.57;43.53
63708;BME280;67643;-34.198;22.084;2023-08-07T08:52:22;101104.96;;;17.67;43.27
63708;BME280;67643;-34.198;22.084;2023-08-07T08:54:52;101100.61;;;17.65;43.47
63708;BME280;67643;-34.198;22.084;2023-08-07T08:57:21;101094.37;;;17.74;43.41
63708;BME280;67643;-34.198;22.084;2023-08-07T08:59:52;101085.74;;;17.68;43.64
63708;BME280;67643;-34.198;22.084;2023-08-07T09:02:21;101082.36;;;17.63;44.06
63708;BME280;67643;-34.198;22.084;2023-08-07T09:04:50;101077.83;;;17.58;43.76
63708;BME280;67643;-34.198;22.084;2023-08-07T09:07:20;101079.95;;;17.95;43.65
63708;BME280;67643;-34.198;22.084;2023-08-07T09:09:50;101074.38;;;18.19;44.15
63708;BME280;67643;-34.198;22.084;2023-08-07T09:12:23;101069.91;;;17.88;43.95
63708;BME280;67643;-34.198;22.084;2023-08-07T09:14:57;101072.43;;;17.85;44.07
63708;BME280;67643;-34.198;22.084;2023-08-07T09:17:29;101068.07;;;17.99;44.10
63708;BME280;67643;-34.198;22.084;2023-08-07T09:19:59;101066.74;;;17.84;44.49
63708;BME280;67643;-34.198;22.084;2023-08-07T09:22:28;101068.08;;;18.14;44.11
63708;BME280;67643;-34.198;22.084;2023-08-07T09:24:57;101064.65;;;17.99;43.96
63708;BME280;67643;-34.198;22.084;2023-08-07T09:27:26;101061.68;;;17.93;43.84
63708;BME280;67643;-34.198;22.084;2023-08-07T09:29:56;101060.41;;;18.33;43.93
63708;BME280;67643;-34.198;22.084;2023-08-07T09:32:26;101065.91;;;17.98;44.53
63708;BME280;67643;-34.198;22.084;2023-08-07T09:34:55;101069.75;;;18.13;44.15
63708;BME280;67643;-34.198;22.084;2023-08-07T09:37:24;101069.49;;;17.78;44.48
63708;BME280;67643;-34.198;22.084;2023-08-07T09:39:53;101068.85;;;17.99;44.16
63708;BME280;67643;-34.198;22.084;2023-08-07T09:42:22;101064.24;;;18.11;43.93
63708;BME280;67643;-34.198;22.084;2023-08-07T09:44:51;101067.78;;;17.96;43.67
63708;BME280;67643;-34.198;22.084;2023-08-07T09:47:19;101056.58;;;18.18;43.88
63708;BME280;67643;-34.198;22.084;2023-08-07T09:49:48;101052.23;;;18.16;43.88
63708;BME280;67643;-34.198;22.084;2023-08-07T09:52:22;101052.69;;;18.06;43.71
63708;BME280;67643;-34.198;22.084;2023-08-07T09:54:56;101046.62;;;18.29;43.58
63708;BME280;67643;-34.198;22.084;2023-08-07T09:57:26;101045.46;;;18.41;43.44
63708;BME280;67643;-34.198;22.084;2023-08-07T09:59:56;101041.20;;;18.36;43.48
63708;BME280;67643;-34.198;22.084;2023-08-07T10:02:25;101038.33;;;18.43;43.55
63708;BME280;67643;-34.198;22.084;2023-08-07T10:04:54;101031.16;;;18.35;43.70
63708;BME280;67643;-34.198;22.084;2023-08-07T10:07:23;101027.38;;;18.20;43.49
63708;BME280;67643;-34.198;22.084;2023-08-07T10:09:52;101019.70;;;18.26;43.37
63708;BME280;67643;-34.198;22.084;2023-08-07T10:12:22;101015.01;;;18.01;43.37
63708;BME280;67643;-34.198;22.084;2023-08-07T10:14:51;101014.15;;;18.32;43.29
63708;BME280;67643;-34.198;22.084;2023-08-07T10:17:22;101005.94;;;18.51;42.86
63708;BME280;67643;-34.198;22.084;2023-08-07T10:19:52;100995.39;;;18.46;43.11
63708;BME280;67643;-34.198;22.084;2023-08-07T10:22:21;100993.86;;;18.47;43.10
63708;BME280;67643;-34.198;22.084;2023-08-07T10:24:54;100996.55;;;18.61;42.66
63708;BME280;67643;-34.198;22.084;2023-08-07T10:27:27;100988.57;;;18.57;42.90
63708;BME280;67643;-34.198;22.084;2023-08-07T10:29:58;100982.80;;;18.46;43.26
63708;BME280;67643;-34.198;22.084;2023-08-07T10:32:31;100980.20;;;18.52;43.26
63708;BME280;67643;-34.198;22.084;2023-08-07T10:35:04;100975.43;;;18.44;43.40
63708;BME280;67643;-34.198;22.084;2023-08-07T10:37:39;100973.46;;;18.31;43.28
63708;BME280;67643;-34.198;22.084;2023-08-07T10:40:09;100968.96;;;18.28;43.34
63708;BME280;67643;-34.198;22.084;2023-08-07T10:43:44;100960.69;;;18.57;43.34
63708;BME280;67643;-34.198;22.084;2023-08-07T10:46:15;100953.26;;;18.42;43.24
63708;BME280;67643;-34.198;22.084;2023-08-07T10:48:45;100945.60;;;18.64;43.29
63708;BME280;67643;-34.198;22.084;2023-08-07T10:51:14;100936.57;;;18.41;43.25
63708;BME280;67643;-34.198;22.084;2023-08-07T10:53:44;100927.09;;;18.28;43.41
63708;BME280;67643;-34.198;22.084;2023-08-07T10:56:17;100927.16;;;18.65;43.33
63708;BME280;67643;-34.198;22.084;2023-08-07T10:58:51;100924.21;;;18.37;43.35
63708;BME280;67643;-34.198;22.084;2023-08-07T11:01:21;100928.08;;;18.43;43.29
63708;BME280;67643;-34.198;22.084;2023-08-07T11:03:52;100912.74;;;18.51;43.18
63708;BME280;67643;-34.198;22.084;2023-08-07T11:06:24;100918.30;;;18.41;43.36
63708;BME280;67643;-34.198;22.084;2023-08-07T11:08:54;100907.16;;;18.55;43.19
63708;BME280;67643;-34.198;22.084;2023-08-07T11:11:22;100901.02;;;18.51;43.30
63708;BME280;67643;-34.198;22.084;2023-08-07T11:13:51;100894.05;;;18.23;43.38
63708;BME280;67643;-34.198;22.084;2023-08-07T11:16:20;100886.35;;;18.65;43.09
63708;BME280;67643;-34.198;22.084;2023-08-07T11:18:50;100882.34;;;18.75;42.92
63708;BME280;67643;-34.198;22.084;2023-08-07T11:21:19;100875.86;;;18.64;42.76
63708;BME280;67643;-34.198;22.084;2023-08-07T11:23:48;100870.41;;;18.87;42.76
63708;BME280;67643;-34.198;22.084;2023-08-07T11:26:16;100867.90;;;18.84;42.84
63708;BME280;67643;-34.198;22.084;2023-08-07T11:28:45;100858.21;;;18.81;42.86
63708;BME280;67643;-34.198;22.084;2023-08-07T11:31:14;100849.63;;;18.92;42.68
63708;BME280;67643;-34.198;22.084;2023-08-07T11:33:43;100844.82;;;18.92;42.71
63708;BME280;67643;-34.198;22.084;2023-08-07T11:36:14;100841.39;;;19.06;42.47
63708;BME280;67643;-34.198;22.084;2023-08-07T11:38:44;100837.44;;;18.84;42.50
63708;BME280;67643;-34.198;22.084;2023-08-07T11:41:14;100836.07;;;19.11;42.40
63708;BME280;67643;-34.198;22.084;2023-08-07T11:43:43;100832.15;;;18.99;42.26
63708;BME280;67643;-34.198;22.084;2023-08-07T11:46:14;100827.12;;;19.37;42.09
63708;BME280;67643;-34.198;22.084;2023-08-07T11:48:50;100824.53;;;19.39;42.14
63708;BME280;67643;-34.198;22.084;2023-08-07T11:51:20;100824.84;;;18.75;42.46
63708;BME280;67643;-34.198;22.084;2023-08-07T11:53:50;100825.18;;;19.04;42.39
63708;BME280;67643;-34.198;22.084;2023-08-07T11:56:18;100821.41;;;18.93;42.22
63708;BME280;67643;-34.198;22.084;2023-08-07T11:58:48;100821.82;;;18.94;42.27
63708;BME280;67643;-34.198;22.084;2023-08-07T12:01:18;100820.16;;;19.31;42.47
63708;BME280;67643;-34.198;22.084;2023-08-07T12:03:52;100820.31;;;19.15;42.47
63708;BME280;67643;-34.198;22.084;2023-08-07T12:06:22;100815.64;;;19.04;42.35
63708;BME280;67643;-34.198;22.084;2023-08-07T12:08:54;100815.35;;;19.14;42.70
63708;BME280;67643;-34.198;22.084;2023-08-07T12:11:24;100812.28;;;19.20;42.59
63708;BME280;67643;-34.198;22.084;2023-08-07T12:13:53;100807.22;;;19.05;42.35
63708;BME280;67643;-34.198;22.084;2023-08-07T12:16:22;100809.02;;;19.54;42.04
63708;BME280;67643;-34.198;22.084;2023-08-07T12:18:52;100809.55;;;19.42;42.32
63708;BME280;67643;-34.198;22.084;2023-08-07T12:21:22;100808.32;;;19.31;42.13
63708;BME280;67643;-34.198;22.084;2023-08-07T12:23:51;100806.15;;;19.17;42.43
63708;BME280;67643;-34.198;22.084;2023-08-07T12:26:20;100809.48;;;19.08;42.62
63708;BME280;67643;-34.198;22.084;2023-08-07T12:28:49;100811.56;;;19.36;42.58
63708;BME280;67643;-34.198;22.084;2023-08-07T12:31:17;100810.77;;;19.30;42.40
63708;BME280;67643;-34.198;22.084;2023-08-07T12:33:46;100803.00;;;19.17;42.62
63708;BME280;67643;-34.198;22.084;2023-08-07T12:36:15;100799.32;;;19.36;42.35
63708;BME280;67643;-34.198;22.084;2023-08-07T12:38:45;100795.30;;;19.28;42.50
63708;BME280;67643;-34.198;22.084;2023-08-07T12:41:13;100792.54;;;19.34;42.44
63708;BME280;67643;-34.198;22.084;2023-08-07T12:43:42;100790.70;;;19.33;42.47